sensor_id;sensor_type;location;lat;lon;timestamp;temperature;humidity
14093;DHT22;7123;49.468;10.992;2023-04-01T00:01:31;9.60;99.90
14093;DHT22;7123;49.468;10.992;2023-04-01T00:03:57;9.70;99.90
14093;DHT22;7123;49.468;10.992;2023-04-01T00:06:24;9.70;99.90
14093;DHT22;7123;49.468;10.992;2023-04-01T00:08:51;9.60;99.90
14093;DHT22;7123;49.468;10.992;2023-04-01T00:11:19;9.70;99.90
14093;DHT22;7123;49.468;10.992;2023-04-01T00:13:47;9.70;99.90
14093;DHT22;7123;49.468;10.992;2023-04-01T00:16:14;9.70;99.90
14093;DHT22;7123;49.468;10.992;2023-04-01T00:18:48;9.70;99.90
14093;DHT22;7123;49.468;10.992;2023-04-01T00:21:16;9.70;99.90
14093;DHT22;7123;49.468;10.992;2023-04-01T00:23:43;9.70;99.90
14093;DHT22;7123;49.468;10.992;2023-04-01T00:26:10;9.70;99.90
14093;DHT22;7123;49.468;10.992;2023-04-01T00:28:38;9.80;99.90
14093;DHT22;7123;49.468;10.992;2023-04-01T00:31:09;9.80;99.90
14093;DHT22;7123;49.468;10.992;2023-04-01T00:33:37;9.80;99.90
14093;DHT22;7123;49.468;10.992;2023-04-01T00:36:16;9.70;99.90
14093;DHT22;7123;49.468;10.992;2023-04-01T00:38:43;9.70;99.90
14093;DHT22;7123;49.468;10.992;2023-04-01T00:41:13;9.70;99.90
14093;DHT22;7123;49.468;10.992;2023-04-01T00:43:43;9.70;99.90
14093;DHT22;7123;49.468;10.992;2023-04-01T00:46:11;9.70;99.90
14093;DHT22;7123;49.468;10.992;2023-04-01T00:48:48;9.80;99.90
14093;DHT22;7123;49.468;10.992;2023-04-01T00:51:18;9.70;99.90
14093;DHT22;7123;49.468;10.992;2023-04-01T00:53:49;9.70;99.90
14093;DHT22;7123;49.468;10.992;2023-04-01T00:56:24;9.70;99.90
14093;DHT22;7123;49.468;10.992;2023-04-01T00:59:04;9.70;99.90
14093;DHT22;7123;49.468;10.992;2023-04-01T01:01:35;9.70;99.90
14093;DHT22;7123;49.468;10.992;2023-04-01T01:04:02;9.70;99.90
14093;DHT22;7123;49.468;10.992;2023-04-01T01:06:44;9.70;99.90
14093;DHT22;7123;49.468;10.992;2023-04-01T01:17:50;9.70;99.90
14093;DHT22;7123;49.468;10.992;2023-04-01T01:34:52;9.70;99.90
14093;DHT22;7123;49.468;10.992;2023-04-01T01:37:24;9.70;99.90
14093;DHT22;7123;49.468;10.992;2023-04-01T01:39:56;9.70;99.90
14093;DHT22;7123;49.468;10.992;2023-04-01T01:42:25;9.70;99.90
14093;DHT22;7123;49.468;10.992;2023-04-01T01:44:54;9.60;99.90
14093;DHT22;7123;49.468;10.992;2023-04-01T01:47:22;9.60;99.90
14093;DHT22;7123;49.468;10.992;2023-04-01T01:49:51;9.60;99.90
14093;DHT22;7123;49.468;10.992;2023-04-01T01:52:19;9.60;99.90
14093;DHT22;7123;49.468;10.992;2023-04-01T01:54:54;9.70;99.90
14093;DHT22;7123;49.468;10.992;2023-04-01T01:57:31;9.70;99.90
14093;DHT22;7123;49.468;10.992;2023-04-01T02:00:04;9.60;99.90
14093;DHT22;7123;49.468;10.992;2023-04-01T02:02:45;9.70;99.90
14093;DHT22;7123;49.468;10.992;2023-04-01T02:05:20;9.70;99.90
14093;DHT22;7123;49.468;10.992;2023-04-01T02:07:52;9.70;99.90
14093;DHT22;7123;49.468;10.992;2023-04-01T02:10:23;9.70;99.90
14093;DHT22;7123;49.468;10.992;2023-04-01T02:12:54;9.70;99.90
14093;DHT22;7123;49.468;10.992;2023-04-01T02:15:24;9.70;99.90
14093;DHT22;7123;49.468;10.992;2023-04-01T02:17:52;9.70;99.90
14093;DHT22;7123;49.468;10.992;2023-04-01T02:20:22;9.70;99.90
14093;DHT22;7123;49.468;10.992;2023-04-01T02:22:56;9.70;99.90
14093;DHT22;7123;49.468;10.992;2023-04-01T02:25:30;9.70;99.90
14093;DHT22;7123;49.468;10.992;2023-04-01T02:28:00;9.70;99.90
14093;DHT22;7123;49.468;10.992;2023-04-01T02:30:29;9.70;99.90
14093;DHT22;7123;49.468;10.992;2023-04-01T02:32:58;9.70;99.90
14093;DHT22;7123;49.468;10.992;2023-04-01T02:35:26;9.70;99.90
14093;DHT22;7123;49.468;10.992;2023-04-01T02:37:54;9.70;99.90
14093;DHT22;7123;49.468;10.992;2023-04-01T02:40:21;9.60;99.90
14093;DHT22;7123;49.468;10.992;2023-04-01T02:42:47;9.70;99.90
14093;DHT22;7123;49.468;10.992;2023-04-01T02:45:14;9.70;99.90
14093;DHT22;7123;49.468;10.992;2023-04-01T02:47:41;9.70;99.90
14093;DHT22;7123;49.468;10.992;2023-04-01T02:50:09;9.70;99.90
14093;DHT22;7123;49.468;10.992;2023-04-01T02:52:36;9.70;99.90
14093;DHT22;7123;49.468;10.992;2023-04-01T02:55:04;9.60;99.90
14093;DHT22;7123;49.468;10.992;2023-04-01T02:57:30;9.60;99.90
14093;DHT22;7123;49.468;10.992;2023-04-01T02:59:57;9.60;99.90
14093;DHT22;7123;49.468;10.992;2023-04-01T03:02:24;9.60;99.90
14093;DHT22;7123;49.468;10.992;2023-04-01T03:04:51;9.60;99.90
14093;DHT22;7123;49.468;10.992;2023-04-01T03:07:18;9.60;99.90
14093;DHT22;7123;49.468;10.992;2023-04-01T03:09:45;9.60;99.90
14093;DHT22;7123;49.468;10.992;2023-04-01T03:12:11;9.60;99.90
14093;DHT22;7123;49.468;10.992;2023-04-01T03:14:38;9.60;99.90
14093;DHT22;7123;49.468;10.992;2023-04-01T03:17:05;9.50;99.90
14093;DHT22;7123;49.468;10.992;2023-04-01T03:19:31;9.60;99.90
14093;DHT22;7123;49.468;10.992;2023-04-01T03:21:58;9.60;99.90
14093;DHT22;7123;49.468;10.992;2023-04-01T03:24:25;9.60;99.90
14093;DHT22;7123;49.468;10.992;2023-04-01T03:26:51;9.50;99.90
14093;DHT22;7123;49.468;10.992;2023-04-01T03:29:18;9.60;99.90
14093;DHT22;7123;49.468;10.992;2023-04-01T03:31:45;9.60;99.90
14093;DHT22;7123;49.468;10.992;2023-04-01T03:34:11;9.60;99.90
14093;DHT22;7123;49.468;10.992;2023-04-01T03:36:38;9.60;99.90
14093;DHT22;7123;49.468;10.992;2023-04-01T03:39:05;9.60;99.90
14093;DHT22;7123;49.468;10.992;2023-04-01T03:41:32;9.60;99.90
14093;DHT22;7123;49.468;10.992;2023-04-01T03:43:59;9.60;99.90
14093;DHT22;7123;49.468;10.992;2023-04-01T03:46:25;9.60;99.90
14093;DHT22;7123;49.468;10.992;2023-04-01T03:48:52;9.60;99.90
14093;DHT22;7123;49.468;10.992;2023-04-01T03:51:19;9.60;99.90
14093;DHT22;7123;49.468;10.992;2023-04-01T03:53:46;9.60;99.90
14093;DHT22;7123;49.468;10.992;2023-04-01T03:56:15;9.70;99.90
14093;DHT22;7123;49.468;10.992;2023-04-01T03:58:42;9.70;99.90
14093;DHT22;7123;49.468;10.992;2023-04-01T04:01:20;9.70;99.90
14093;DHT22;7123;49.468;10.992;2023-04-01T04:03:48;9.70;99.90
14093;DHT22;7123;49.468;10.992;2023-04-01T04:06:17;9.70;99.90
14093;DHT22;7123;49.468;10.992;2023-04-01T04:08:44;9.70;99.90
14093;DHT22;7123;49.468;10.992;2023-04-01T04:11:11;9.70;99.90
14093;DHT22;7123;49.468;10.992;2023-04-01T04:13:38;9.80;99.90
14093;DHT22;7123;49.468;10.992;2023-04-01T04:16:05;9.70;99.90
14093;DHT22;7123;49.468;10.992;2023-04-01T04:18:32;9.70;99.90
14093;DHT22;7123;49.468;10.992;2023-04-01T04:20:59;9.70;99.90
14093;DHT22;7123;49.468;10.992;2023-04-01T04:23:26;9.70;99.90
14093;DHT22;7123;49.468;10.992;2023-04-01T04:26:01;9.70;99.90
14093;DHT22;7123;49.468;10.992;2023-04-01T04:28:29;9.60;99.90
14093;DHT22;7123;49.468;10.992;2023-04-01T04:30:56;9.60;99.90
14093;DHT22;7123;49.468;10.992;2023-04-01T04:33:23;9.60;99.90
14093;DHT22;7123;49.468;10.992;2023-04-01T04:35:51;9.50;99.90
14093;DHT22;7123;49.468;10.992;2023-04-01T04:38:18;9.60;99.90
14093;DHT22;7123;49.468;10.992;2023-04-01T04:40:44;9.60;99.90
14093;DHT22;7123;49.468;10.992;2023-04-01T04:43:12;9.60;99.90
14093;DHT22;7123;49.468;10.992;2023-04-01T04:45:39;9.50;99.90
14093;DHT22;7123;49.468;10.992;2023-04-01T04:48:08;9.60;99.90
14093;DHT22;7123;49.468;10.992;2023-04-01T04:50:35;9.60;99.90
14093;DHT22;7123;49.468;10.992;2023-04-01T04:53:02;9.60;99.90
14093;DHT22;7123;49.468;10.992;2023-04-01T04:55:29;9.60;99.90
14093;DHT22;7123;49.468;10.992;2023-04-01T04:57:57;9.50;99.90
14093;DHT22;7123;49.468;10.992;2023-04-01T05:00:23;9.40;99.90
14093;DHT22;7123;49.468;10.992;2023-04-01T05:02:50;9.50;99.90
14093;DHT22;7123;49.468;10.992;2023-04-01T05:05:17;9.40;99.90
14093;DHT22;7123;49.468;10.992;2023-04-01T05:07:43;9.30;99.90
14093;DHT22;7123;49.468;10.992;2023-04-01T05:10:10;9.30;99.90
14093;DHT22;7123;49.468;10.992;2023-04-01T05:12:37;9.40;99.90
14093;DHT22;7123;49.468;10.992;2023-04-01T05:15:06;9.40;99.90
14093;DHT22;7123;49.468;10.992;2023-04-01T05:17:33;9.40;99.90
14093;DHT22;7123;49.468;10.992;2023-04-01T05:20:00;9.50;99.90
14093;DHT22;7123;49.468;10.992;2023-04-01T05:22:26;9.50;99.90
14093;DHT22;7123;49.468;10.992;2023-04-01T05:24:53;9.60;99.90
14093;DHT22;7123;49.468;10.992;2023-04-01T05:27:20;9.60;99.90
14093;DHT22;7123;49.468;10.992;2023-04-01T05:29:47;9.60;99.90
14093;DHT22;7123;49.468;10.992;2023-04-01T05:32:13;9.50;99.90
14093;DHT22;7123;49.468;10.992;2023-04-01T05:34:41;9.50;99.90
14093;DHT22;7123;49.468;10.992;2023-04-01T05:37:08;9.50;99.90
14093;DHT22;7123;49.468;10.992;2023-04-01T05:39:38;9.40;99.90
14093;DHT22;7123;49.468;10.992;2023-04-01T05:42:08;9.40;99.90
14093;DHT22;7123;49.468;10.992;2023-04-01T05:44:35;9.50;99.90
14093;DHT22;7123;49.468;10.992;2023-04-01T05:47:03;9.60;99.90
14093;DHT22;7123;49.468;10.992;2023-04-01T05:49:30;9.50;99.90
14093;DHT22;7123;49.468;10.992;2023-04-01T05:51:57;9.40;99.90
14093;DHT22;7123;49.468;10.992;2023-04-01T05:54:23;9.30;99.90
14093;DHT22;7123;49.468;10.992;2023-04-01T05:56:50;9.30;99.90
14093;DHT22;7123;49.468;10.992;2023-04-01T05:59:17;9.30;99.90
14093;DHT22;7123;49.468;10.992;2023-04-01T06:01:44;9.40;99.90
14093;DHT22;7123;49.468;10.992;2023-04-01T06:04:15;9.40;99.90
14093;DHT22;7123;49.468;10.992;2023-04-01T06:06:42;9.50;99.90
14093;DHT22;7123;49.468;10.992;2023-04-01T06:09:18;9.40;99.90
14093;DHT22;7123;49.468;10.992;2023-04-01T06:15:14;9.20;99.90
14093;DHT22;7123;49.468;10.992;2023-04-01T06:18:36;9.30;99.90
14093;DHT22;7123;49.468;10.992;2023-04-01T06:21:15;9.20;99.90
14093;DHT22;7123;49.468;10.992;2023-04-01T06:24:15;9.10;99.90
14093;DHT22;7123;49.468;10.992;2023-04-01T06:38:21;9.40;99.90
14093;DHT22;7123;49.468;10.992;2023-04-01T06:46:58;9.70;99.90
14093;DHT22;7123;49.468;10.992;2023-04-01T06:54:49;9.70;99.90
14093;DHT22;7123;49.468;10.992;2023-04-01T06:57:29;9.70;99.90
14093;DHT22;7123;49.468;10.992;2023-04-01T06:59:59;9.70;99.90
14093;DHT22;7123;49.468;10.992;2023-04-01T07:02:43;9.80;99.90
14093;DHT22;7123;49.468;10.992;2023-04-01T07:05:11;9.80;99.90
14093;DHT22;7123;49.468;10.992;2023-04-01T07:07:47;9.90;99.90
14093;DHT22;7123;49.468;10.992;2023-04-01T07:10:46;9.90;99.90
14093;DHT22;7123;49.468;10.992;2023-04-01T07:13:26;9.80;99.90
14093;DHT22;7123;49.468;10.992;2023-04-01T07:16:08;9.80;99.90
14093;DHT22;7123;49.468;10.992;2023-04-01T07:18:50;9.90;99.90
14093;DHT22;7123;49.468;10.992;2023-04-01T07:21:44;9.90;99.90
14093;DHT22;7123;49.468;10.992;2023-04-01T07:24:20;9.90;99.90
14093;DHT22;7123;49.468;10.992;2023-04-01T07:26:53;9.90;99.90
14093;DHT22;7123;49.468;10.992;2023-04-01T07:29:20;10.00;99.90
14093;DHT22;7123;49.468;10.992;2023-04-01T07:34:27;10.10;99.90
14093;DHT22;7123;49.468;10.992;2023-04-01T07:37:23;10.10;99.90
14093;DHT22;7123;49.468;10.992;2023-04-01T07:45:36;10.20;99.90
14093;DHT22;7123;49.468;10.992;2023-04-01T07:48:08;10.20;99.90
14093;DHT22;7123;49.468;10.992;2023-04-01T08:01:55;10.40;99.90
14093;DHT22;7123;49.468;10.992;2023-04-01T08:07:33;10.30;99.90
14093;DHT22;7123;49.468;10.992;2023-04-01T08:10:30;10.30;99.90
14093;DHT22;7123;49.468;10.992;2023-04-01T08:16:32;10.40;99.90
14093;DHT22;7123;49.468;10.992;2023-04-01T08:21:39;10.50;99.90
14093;DHT22;7123;49.468;10.992;2023-04-01T08:24:26;10.50;99.90
14093;DHT22;7123;49.468;10.992;2023-04-01T08:27:39;10.60;99.90
14093;DHT22;7123;49.468;10.992;2023-04-01T08:30:23;10.60;99.90
14093;DHT22;7123;49.468;10.992;2023-04-01T08:33:00;10.70;99.90
14093;DHT22;7123;49.468;10.992;2023-04-01T08:35:33;10.70;99.90
14093;DHT22;7123;49.468;10.992;2023-04-01T08:41:22;10.60;99.90
14093;DHT22;7123;49.468;10.992;2023-04-01T08:49:25;10.60;99.90
14093;DHT22;7123;49.468;10.992;2023-04-01T08:55:36;10.70;99.90
14093;DHT22;7123;49.468;10.992;2023-04-01T09:00:35;10.60;99.90
14093;DHT22;7123;49.468;10.992;2023-04-01T09:03:36;10.70;99.90
14093;DHT22;7123;49.468;10.992;2023-04-01T09:09:05;10.70;99.90
14093;DHT22;7123;49.468;10.992;2023-04-01T09:25:34;10.70;99.90
14093;DHT22;7123;49.468;10.992;2023-04-01T09:28:13;10.80;99.90
14093;DHT22;7123;49.468;10.992;2023-04-01T09:39:25;10.80;99.90
14093;DHT22;7123;49.468;10.992;2023-04-01T09:53:14;10.80;99.90
14093;DHT22;7123;49.468;10.992;2023-04-01T09:56:33;10.70;99.90
14093;DHT22;7123;49.468;10.992;2023-04-01T09:58:54;10.70;99.90
14093;DHT22;7123;49.468;10.992;2023-04-01T10:02:23;10.50;99.90
14093;DHT22;7123;49.468;10.992;2023-04-01T10:08:10;10.20;99.90
14093;DHT22;7123;49.468;10.992;2023-04-01T10:23:55;10.00;99.90
14093;DHT22;7123;49.468;10.992;2023-04-01T10:43:16;10.10;99.90
14093;DHT22;7123;49.468;10.992;2023-04-01T11:38:39;10.00;99.90
14093;DHT22;7123;49.468;10.992;2023-04-01T11:41:36;9.90;99.90
14093;DHT22;7123;49.468;10.992;2023-04-01T11:44:19;9.90;99.90
14093;DHT22;7123;49.468;10.992;2023-04-01T11:52:39;10.00;99.90
14093;DHT22;7123;49.468;10.992;2023-04-01T12:01:36;9.90;99.90
14093;DHT22;7123;49.468;10.992;2023-04-01T12:17:43;9.90;99.90
14093;DHT22;7123;49.468;10.992;2023-04-01T12:20:48;10.00;99.90
14093;DHT22;7123;49.468;10.992;2023-04-01T12:41:07;10.00;99.90
14093;DHT22;7123;49.468;10.992;2023-04-01T12:46:41;10.10;99.90
14093;DHT22;7123;49.468;10.992;2023-04-01T12:49:20;9.90;99.90
14093;DHT22;7123;49.468;10.992;2023-04-01T13:09:32;10.30;99.90
14093;DHT22;7123;49.468;10.992;2023-04-01T13:15:02;10.30;99.90
14093;DHT22;7123;49.468;10.992;2023-04-01T13:17:39;10.20;99.90
14093;DHT22;7123;49.468;10.992;2023-04-01T13:20:34;10.20;99.90
14093;DHT22;7123;49.468;10.992;2023-04-01T13:37:05;10.40;99.90
14093;DHT22;7123;49.468;10.992;2023-04-01T13:42:50;10.40;99.90
14093;DHT22;7123;49.468;10.992;2023-04-01T13:45:23;10.40;99.90
14093;DHT22;7123;49.468;10.992;2023-04-01T13:47:58;10.30;99.90
14093;DHT22;7123;49.468;10.992;2023-04-01T13:56:34;10.40;99.90
14093;DHT22;7123;49.468;10.992;2023-04-01T14:05:23;10.40;99.90
14093;DHT22;7123;49.468;10.992;2023-04-01T14:08:20;10.50;99.90
14093;DHT22;7123;49.468;10.992;2023-04-01T14:42:07;10.20;99.90
14093;DHT22;7123;49.468;10.992;2023-04-01T14:50:46;10.20;99.90
14093;DHT22;7123;49.468;10.992;2023-04-01T14:53:27;10.20;99.90
14093;DHT22;7123;49.468;10.992;2023-04-01T14:55:59;10.10;99.90
14093;DHT22;7123;49.468;10.992;2023-04-01T14:58:49;10.20;99.90
14093;DHT22;7123;49.468;10.992;2023-04-01T15:07:21;10.20;99.90
14093;DHT22;7123;49.468;10.992;2023-04-01T15:25:00;10.50;99.90
14093;DHT22;7123;49.468;10.992;2023-04-01T15:30:33;10.40;99.90
14093;DHT22;7123;49.468;10.992;2023-04-01T15:41:36;10.40;99.90
14093;DHT22;7123;49.468;10.992;2023-04-01T15:44:27;10.40;99.90
14093;DHT22;7123;49.468;10.992;2023-04-01T15:47:01;10.40;99.90
14093;DHT22;7123;49.468;10.992;2023-04-01T15:49:36;10.40;99.90
14093;DHT22;7123;49.468;10.992;2023-04-01T15:55:00;10.40;99.90
14093;DHT22;7123;49.468;10.992;2023-04-01T16:05:54;10.30;99.90
14093;DHT22;7123;49.468;10.992;2023-04-01T16:20:18;10.20;99.90
14093;DHT22;7123;49.468;10.992;2023-04-01T16:22:53;10.10;99.90
14093;DHT22;7123;49.468;10.992;2023-04-01T16:25:39;10.20;99.90
14093;DHT22;7123;49.468;10.992;2023-04-01T16:31:03;10.20;99.90
14093;DHT22;7123;49.468;10.992;2023-04-01T16:33:55;10.20;99.90
14093;DHT22;7123;49.468;10.992;2023-04-01T16:41:35;10.10;99.90
14093;DHT22;7123;49.468;10.992;2023-04-01T16:44:26;10.10;99.90
14093;DHT22;7123;49.468;10.992;2023-04-01T16:46:59;10.00;99.90
14093;DHT22;7123;49.468;10.992;2023-04-01T16:49:51;10.00;99.90
14093;DHT22;7123;49.468;10.992;2023-04-01T16:53:01;10.10;99.90
14093;DHT22;7123;49.468;10.992;2023-04-01T16:58:09;10.00;99.90
14093;DHT22;7123;49.468;10.992;2023-04-01T17:00:37;10.00;99.90
14093;DHT22;7123;49.468;10.992;2023-04-01T17:03:12;10.00;99.90
14093;DHT22;7123;49.468;10.992;2023-04-01T17:11:18;9.90;99.90
14093;DHT22;7123;49.468;10.992;2023-04-01T17:16:46;10.00;99.90
14093;DHT22;7123;49.468;10.992;2023-04-01T17:22:19;9.70;99.90
14093;DHT22;7123;49.468;10.992;2023-04-01T17:27:42;9.70;99.90
14093;DHT22;7123;49.468;10.992;2023-04-01T17:30:28;9.80;99.90
14093;DHT22;7123;49.468;10.992;2023-04-01T17:33:34;9.80;99.90
14093;DHT22;7123;49.468;10.992;2023-04-01T17:38:58;9.80;99.90
14093;DHT22;7123;49.468;10.992;2023-04-01T17:41:32;9.80;99.90
14093;DHT22;7123;49.468;10.992;2023-04-01T17:55:15;9.90;99.90
14093;DHT22;7123;49.468;10.992;2023-04-01T17:57:54;9.90;99.90
14093;DHT22;7123;49.468;10.992;2023-04-01T18:09:00;9.90;99.90
14093;DHT22;7123;49.468;10.992;2023-04-01T18:11:48;9.90;99.90
14093;DHT22;7123;49.468;10.992;2023-04-01T18:20:01;9.90;99.90
14093;DHT22;7123;49.468;10.992;2023-04-01T18:26:02;9.80;99.90
14093;DHT22;7123;49.468;10.992;2023-04-01T18:28:41;9.80;99.90
14093;DHT22;7123;49.468;10.992;2023-04-01T18:31:20;9.80;99.90
14093;DHT22;7123;49.468;10.992;2023-04-01T18:34:02;9.70;99.90
14093;DHT22;7123;49.468;10.992;2023-04-01T18:39:34;9.70;99.90
14093;DHT22;7123;49.468;10.992;2023-04-01T18:42:38;9.80;99.90
14093;DHT22;7123;49.468;10.992;2023-04-01T18:45:21;9.80;99.90
14093;DHT22;7123;49.468;10.992;2023-04-01T18:48:06;9.80;99.90
14093;DHT22;7123;49.468;10.992;2023-04-01T18:50:52;9.80;99.90
14093;DHT22;7123;49.468;10.992;2023-04-01T18:53:41;9.80;99.90
14093;DHT22;7123;49.468;10.992;2023-04-01T18:56:13;9.80;99.90
14093;DHT22;7123;49.468;10.992;2023-04-01T18:59:00;9.80;99.90
14093;DHT22;7123;49.468;10.992;2023-04-01T19:01:40;9.80;99.90
14093;DHT22;7123;49.468;10.992;2023-04-01T19:04:31;9.80;99.90
14093;DHT22;7123;49.468;10.992;2023-04-01T19:10:20;9.70;99.90
14093;DHT22;7123;49.468;10.992;2023-04-01T19:16:26;9.70;99.90
14093;DHT22;7123;49.468;10.992;2023-04-01T19:30:14;9.70;99.90
14093;DHT22;7123;49.468;10.992;2023-04-01T19:38:37;9.70;99.90
14093;DHT22;7123;49.468;10.992;2023-04-01T19:44:35;9.70;99.90
14093;DHT22;7123;49.468;10.992;2023-04-01T19:47:34;9.70;99.90
14093;DHT22;7123;49.468;10.992;2023-04-01T19:52:42;9.70;99.90
14093;DHT22;7123;49.468;10.992;2023-04-01T20:00:42;9.70;99.90
14093;DHT22;7123;49.468;10.992;2023-04-01T20:08:33;9.70;99.90
14093;DHT22;7123;49.468;10.992;2023-04-01T20:16:16;9.80;99.90
14093;DHT22;7123;49.468;10.992;2023-04-01T20:26:35;9.80;99.90
14093;DHT22;7123;49.468;10.992;2023-04-01T20:35:51;9.90;99.90
14093;DHT22;7123;49.468;10.992;2023-04-01T20:40:49;9.80;99.90
14093;DHT22;7123;49.468;10.992;2023-04-01T20:43:20;9.80;99.90
14093;DHT22;7123;49.468;10.992;2023-04-01T20:45:55;9.90;99.90
14093;DHT22;7123;49.468;10.992;2023-04-01T20:51:23;9.80;99.90
14093;DHT22;7123;49.468;10.992;2023-04-01T21:03:12;9.80;99.90
14093;DHT22;7123;49.468;10.992;2023-04-01T21:09:11;9.80;99.90
14093;DHT22;7123;49.468;10.992;2023-04-01T21:11:56;9.80;99.90
14093;DHT22;7123;49.468;10.992;2023-04-01T21:14:48;9.70;99.90
14093;DHT22;7123;49.468;10.992;2023-04-01T21:36:59;9.60;99.90
14093;DHT22;7123;49.468;10.992;2023-04-01T21:47:59;9.60;99.90
14093;DHT22;7123;49.468;10.992;2023-04-01T21:50:44;9.60;99.90
14093;DHT22;7123;49.468;10.992;2023-04-01T22:04:53;9.60;99.90
14093;DHT22;7123;49.468;10.992;2023-04-01T22:07:47;9.60;99.90
14093;DHT22;7123;49.468;10.992;2023-04-01T22:21:41;9.60;99.90
14093;DHT22;7123;49.468;10.992;2023-04-01T22:24:27;9.60;99.90
14093;DHT22;7123;49.468;10.992;2023-04-01T22:27:18;9.60;99.90
14093;DHT22;7123;49.468;10.992;2023-04-01T22:32:47;9.60;99.90
14093;DHT22;7123;49.468;10.992;2023-04-01T22:35:24;9.60;99.90
14093;DHT22;7123;49.468;10.992;2023-04-01T22:38:10;9.60;99.90
14093;DHT22;7123;49.468;10.992;2023-04-01T22:40:47;9.60;99.90
14093;DHT22;7123;49.468;10.992;2023-04-01T22:43:44;9.60;99.90
14093;DHT22;7123;49.468;10.992;2023-04-01T22:46:32;9.60;99.90
14093;DHT22;7123;49.468;10.992;2023-04-01T22:49:21;9.50;99.90
14093;DHT22;7123;49.468;10.992;2023-04-01T22:54:56;9.50;99.90
14093;DHT22;7123;49.468;10.992;2023-04-01T23:02:39;9.40;99.90
14093;DHT22;7123;49.468;10.992;2023-04-01T23:05:13;9.40;99.90
14093;DHT22;7123;49.468;10.992;2023-04-01T23:13:04;9.40;99.90
14093;DHT22;7123;49.468;10.992;2023-04-01T23:15:32;9.40;99.90
14093;DHT22;7123;49.468;10.992;2023-04-01T23:18:19;9.40;99.90
14093;DHT22;7123;49.468;10.992;2023-04-01T23:29:02;9.30;99.90
14093;DHT22;7123;49.468;10.992;2023-04-01T23:31:35;9.20;99.90
14093;DHT22;7123;49.468;10.992;2023-04-01T23:34:45;9.20;99.90
14093;DHT22;7123;49.468;10.992;2023-04-01T23:36:56;9.20;99.90
14093;DHT22;7123;49.468;10.992;2023-04-01T23:39:37;9.20;99.90
14093;DHT22;7123;49.468;10.992;2023-04-01T23:42:28;9.30;99.90
14093;DHT22;7123;49.468;10.992;2023-04-01T23:44:56;9.30;99.90
14093;DHT22;7123;49.468;10.992;2023-04-01T23:47:28;9.20;99.90
14093;DHT22;7123;49.468;10.992;2023-04-01T23:49:59;9.20;99.90
14093;DHT22;7123;49.468;10.992;2023-04-01T23:52:35;9.30;99.90
14093;DHT22;7123;49.468;10.992;2023-04-01T23:55:23;9.20;99.90
